Portada
METAR-TAF:

METAR-TAF

Aeroports :

Aneityum, Vanuatu

latitud: 20-14-57S, longitud: 169-46-17E, altitud: 2 m

Observació

L'informe es va fer fa 4 hores i 44 minuts, a les 03:00 UTC
Vent 3 kt del Est
Temperatura 30°C
Humitat 70%
Pressió 1006 hPa
Visibilitat 10 km o més
Núvols disperses a una alçada de 2000 ft
Cel ennuvolat a una alçada de 12000 ft

METAR: NVVA 310300Z 09003KT 9999 SCT020 BKN120 30/24 Q1006

Hora: 18:44 (07:44 UTC)

Pronòstic

L'informe es va fer fa 2 hores i 44 minuts, a les 05:00 UTC
Pronòstic vàlid del 31 a les 06 UTC al 01 a les 06 UTC
Vent 4 kt amb direcció variable
Visibilitat: 8000 m
Cel ennuvolat a una alçada de 2000 ft
Escasses núvols a una alçada de 800 ft
Cel ennuvolat a una alçada de 1600 ft
Escasses núvols a una alçada de 2000 ft, Cumulonimbus.
tempesta, pluja

TAF: NVVA 310500Z 3106/0106 VRB04KT 9999 BKN020 INTER 3106/3112 8000 TSRA FEW008 BKN016 FEW020CB

Observacions i pronòstics meteorològics de més de 4000 aeroports (METAR i TAF).

Les estacions disponibles són els punts grocs i vermells al mapa.

Posi el ratolí al punt desitjat per veure el nom de l'estació.

Feu clic per veure les observacions i els pronòstics meteorològics.

Per canviar el mapa: feu clic els botons verds amb una creu de color negre per apropar; al botó verd amb un guió per allunyar la imatge; o en les fletxes verdes per a mapes adjacents.


METAR-TAF: